sensor_id;sensor_type;location;lat;lon;timestamp;P1;durP1;ratioP1;P2;durP2;ratioP2
4078;SDS011;2054;47.858;11.156;2023-03-01T03:45:35;27.35;;;13.35;;
4078;SDS011;2054;47.858;11.156;2023-03-01T03:48:05;29.77;;;14.18;;
4078;SDS011;2054;47.858;11.156;2023-03-01T03:50:32;31.38;;;14.75;;
4078;SDS011;2054;47.858;11.156;2023-03-01T03:53:00;31.80;;;14.25;;
4078;SDS011;2054;47.858;11.156;2023-03-01T03:55:27;28.65;;;13.52;;
4078;SDS011;2054;47.858;11.156;2023-03-01T03:57:58;27.63;;;14.10;;
4078;SDS011;2054;47.858;11.156;2023-03-01T04:00:32;29.15;;;13.38;;
4078;SDS011;2054;47.858;11.156;2023-03-01T04:03:01;30.98;;;14.65;;
4078;SDS011;2054;47.858;11.156;2023-03-01T04:05:28;30.85;;;13.52;;
4078;SDS011;2054;47.858;11.156;2023-03-01T04:07:56;30.90;;;14.18;;
4078;SDS011;2054;47.858;11.156;2023-03-01T04:10:32;25.52;;;13.02;;
4078;SDS011;2054;47.858;11.156;2023-03-01T04:13:00;28.45;;;13.93;;
4078;SDS011;2054;47.858;11.156;2023-03-01T04:15:27;28.10;;;13.85;;
4078;SDS011;2054;47.858;11.156;2023-03-01T04:17:55;28.10;;;13.82;;
4078;SDS011;2054;47.858;11.156;2023-03-01T04:20:26;28.45;;;14.38;;
4078;SDS011;2054;47.858;11.156;2023-03-01T04:22:57;24.17;;;12.95;;
4078;SDS011;2054;47.858;11.156;2023-03-01T04:25:24;25.58;;;13.55;;
4078;SDS011;2054;47.858;11.156;2023-03-01T04:27:52;26.60;;;13.85;;
4078;SDS011;2054;47.858;11.156;2023-03-01T04:30:19;28.35;;;13.43;;
4078;SDS011;2054;47.858;11.156;2023-03-01T04:32:50;30.42;;;14.93;;
4078;SDS011;2054;47.858;11.156;2023-03-01T04:35:17;27.33;;;14.02;;
4078;SDS011;2054;47.858;11.156;2023-03-01T04:37:50;30.75;;;14.38;;
4078;SDS011;2054;47.858;11.156;2023-03-01T04:40:17;26.65;;;13.65;;
4078;SDS011;2054;47.858;11.156;2023-03-01T04:42:46;26.00;;;13.65;;
4078;SDS011;2054;47.858;11.156;2023-03-01T04:45:13;27.60;;;14.25;;
4078;SDS011;2054;47.858;11.156;2023-03-01T04:47:41;31.15;;;13.85;;
4078;SDS011;2054;47.858;11.156;2023-03-01T04:50:09;37.47;;;14.30;;
4078;SDS011;2054;47.858;11.156;2023-03-01T04:52:37;27.98;;;14.57;;
4078;SDS011;2054;47.858;11.156;2023-03-01T04:55:06;29.88;;;14.10;;
4078;SDS011;2054;47.858;11.156;2023-03-01T04:57:34;26.40;;;14.07;;
4078;SDS011;2054;47.858;11.156;2023-03-01T05:00:02;25.15;;;13.45;;
4078;SDS011;2054;47.858;11.156;2023-03-01T05:02:44;29.30;;;14.00;;
4078;SDS011;2054;47.858;11.156;2023-03-01T05:05:13;29.88;;;12.88;;
4078;SDS011;2054;47.858;11.156;2023-03-01T05:07:45;29.05;;;13.90;;
4078;SDS011;2054;47.858;11.156;2023-03-01T05:10:14;27.92;;;13.10;;
4078;SDS011;2054;47.858;11.156;2023-03-01T05:12:42;28.92;;;13.43;;
4078;SDS011;2054;47.858;11.156;2023-03-01T05:15:09;31.42;;;14.55;;
4078;SDS011;2054;47.858;11.156;2023-03-01T05:17:37;28.73;;;13.63;;
4078;SDS011;2054;47.858;11.156;2023-03-01T05:20:04;24.55;;;13.55;;
4078;SDS011;2054;47.858;11.156;2023-03-01T05:22:35;28.30;;;14.07;;
4078;SDS011;2054;47.858;11.156;2023-03-01T05:25:03;28.73;;;13.40;;
4078;SDS011;2054;47.858;11.156;2023-03-01T05:27:32;25.25;;;12.65;;
4078;SDS011;2054;47.858;11.156;2023-03-01T05:29:59;31.50;;;13.93;;
4078;SDS011;2054;47.858;11.156;2023-03-01T05:32:38;28.73;;;14.23;;
4078;SDS011;2054;47.858;11.156;2023-03-01T05:35:05;28.85;;;13.18;;
4078;SDS011;2054;47.858;11.156;2023-03-01T05:37:33;30.90;;;14.50;;
4078;SDS011;2054;47.858;11.156;2023-03-01T05:40:00;28.25;;;14.73;;
4078;SDS011;2054;47.858;11.156;2023-03-01T05:42:31;28.35;;;14.30;;
4078;SDS011;2054;47.858;11.156;2023-03-01T05:44:58;27.83;;;12.85;;
4078;SDS011;2054;47.858;11.156;2023-03-01T05:47:26;29.25;;;14.27;;
4078;SDS011;2054;47.858;11.156;2023-03-01T05:49:55;30.17;;;14.68;;
4078;SDS011;2054;47.858;11.156;2023-03-01T05:52:24;27.55;;;14.40;;
4078;SDS011;2054;47.858;11.156;2023-03-01T05:54:52;27.17;;;13.98;;
4078;SDS011;2054;47.858;11.156;2023-03-01T05:57:20;27.60;;;13.00;;
4078;SDS011;2054;47.858;11.156;2023-03-01T05:59:49;28.80;;;13.20;;
4078;SDS011;2054;47.858;11.156;2023-03-01T06:02:16;28.95;;;15.07;;
4078;SDS011;2054;47.858;11.156;2023-03-01T06:04:43;28.75;;;14.75;;
4078;SDS011;2054;47.858;11.156;2023-03-01T06:07:10;24.40;;;12.60;;
4078;SDS011;2054;47.858;11.156;2023-03-01T06:09:38;29.70;;;14.90;;
4078;SDS011;2054;47.858;11.156;2023-03-01T06:12:05;28.70;;;14.57;;
4078;SDS011;2054;47.858;11.156;2023-03-01T06:14:33;26.35;;;13.70;;
4078;SDS011;2054;47.858;11.156;2023-03-01T06:17:01;29.58;;;14.13;;
4078;SDS011;2054;47.858;11.156;2023-03-01T06:19:29;33.28;;;14.00;;
4078;SDS011;2054;47.858;11.156;2023-03-01T06:21:56;27.38;;;13.88;;
4078;SDS011;2054;47.858;11.156;2023-03-01T06:24:23;33.03;;;14.25;;
4078;SDS011;2054;47.858;11.156;2023-03-01T06:26:52;28.13;;;12.95;;
4078;SDS011;2054;47.858;11.156;2023-03-01T06:29:19;24.20;;;13.43;;
4078;SDS011;2054;47.858;11.156;2023-03-01T06:31:47;27.67;;;13.52;;
4078;SDS011;2054;47.858;11.156;2023-03-01T06:34:16;28.88;;;13.63;;
4078;SDS011;2054;47.858;11.156;2023-03-01T06:36:44;28.63;;;14.30;;
4078;SDS011;2054;47.858;11.156;2023-03-01T06:39:11;31.27;;;14.60;;
4078;SDS011;2054;47.858;11.156;2023-03-01T06:41:38;28.92;;;14.00;;
4078;SDS011;2054;47.858;11.156;2023-03-01T06:44:06;31.17;;;14.18;;
4078;SDS011;2054;47.858;11.156;2023-03-01T06:46:33;28.92;;;14.85;;
4078;SDS011;2054;47.858;11.156;2023-03-01T06:49:00;30.77;;;15.10;;
4078;SDS011;2054;47.858;11.156;2023-03-01T06:51:31;26.33;;;14.13;;
4078;SDS011;2054;47.858;11.156;2023-03-01T06:53:58;29.55;;;14.65;;
4078;SDS011;2054;47.858;11.156;2023-03-01T06:56:25;35.05;;;15.60;;
4078;SDS011;2054;47.858;11.156;2023-03-01T06:58:52;28.65;;;14.85;;
4078;SDS011;2054;47.858;11.156;2023-03-01T07:01:20;34.10;;;16.33;;
4078;SDS011;2054;47.858;11.156;2023-03-01T07:03:47;30.10;;;15.02;;
4078;SDS011;2054;47.858;11.156;2023-03-01T07:06:14;32.67;;;15.18;;
4078;SDS011;2054;47.858;11.156;2023-03-01T07:08:44;27.75;;;14.25;;
4078;SDS011;2054;47.858;11.156;2023-03-01T07:11:11;29.75;;;14.50;;
4078;SDS011;2054;47.858;11.156;2023-03-01T07:13:38;31.98;;;15.02;;
4078;SDS011;2054;47.858;11.156;2023-03-01T07:16:06;27.77;;;15.82;;
4078;SDS011;2054;47.858;11.156;2023-03-01T07:18:33;35.20;;;14.60;;
4078;SDS011;2054;47.858;11.156;2023-03-01T07:21:03;34.03;;;16.08;;
4078;SDS011;2054;47.858;11.156;2023-03-01T07:23:31;31.58;;;16.00;;
4078;SDS011;2054;47.858;11.156;2023-03-01T07:26:00;32.38;;;16.27;;
4078;SDS011;2054;47.858;11.156;2023-03-01T07:28:28;31.20;;;15.85;;
4078;SDS011;2054;47.858;11.156;2023-03-01T07:31:00;31.75;;;16.10;;
4078;SDS011;2054;47.858;11.156;2023-03-01T07:33:27;29.08;;;14.77;;
4078;SDS011;2054;47.858;11.156;2023-03-01T07:35:58;29.10;;;15.30;;
4078;SDS011;2054;47.858;11.156;2023-03-01T07:38:25;31.90;;;15.40;;
4078;SDS011;2054;47.858;11.156;2023-03-01T07:40:53;32.55;;;14.63;;
4078;SDS011;2054;47.858;11.156;2023-03-01T07:43:21;35.97;;;15.73;;
4078;SDS011;2054;47.858;11.156;2023-03-01T07:45:49;27.75;;;14.30;;
4078;SDS011;2054;47.858;11.156;2023-03-01T07:48:16;28.05;;;14.77;;
4078;SDS011;2054;47.858;11.156;2023-03-01T07:50:44;29.60;;;14.93;;
4078;SDS011;2054;47.858;11.156;2023-03-01T07:53:11;35.58;;;14.95;;
4078;SDS011;2054;47.858;11.156;2023-03-01T07:55:38;30.10;;;15.57;;
4078;SDS011;2054;47.858;11.156;2023-03-01T07:58:05;28.10;;;14.68;;
4078;SDS011;2054;47.858;11.156;2023-03-01T08:00:34;27.95;;;14.55;;
4078;SDS011;2054;47.858;11.156;2023-03-01T08:03:01;25.50;;;13.65;;
4078;SDS011;2054;47.858;11.156;2023-03-01T08:05:29;32.30;;;15.00;;
4078;SDS011;2054;47.858;11.156;2023-03-01T08:07:56;30.65;;;15.45;;
4078;SDS011;2054;47.858;11.156;2023-03-01T08:10:23;28.25;;;14.25;;
4078;SDS011;2054;47.858;11.156;2023-03-01T08:12:51;31.77;;;14.40;;
4078;SDS011;2054;47.858;11.156;2023-03-01T08:15:18;26.27;;;14.20;;
4078;SDS011;2054;47.858;11.156;2023-03-01T08:17:49;30.67;;;14.98;;
4078;SDS011;2054;47.858;11.156;2023-03-01T08:20:17;31.83;;;15.30;;
4078;SDS011;2054;47.858;11.156;2023-03-01T08:22:44;30.83;;;15.68;;
4078;SDS011;2054;47.858;11.156;2023-03-01T08:25:11;29.50;;;14.95;;
4078;SDS011;2054;47.858;11.156;2023-03-01T08:27:38;31.27;;;14.52;;
4078;SDS011;2054;47.858;11.156;2023-03-01T08:30:06;33.97;;;16.65;;
4078;SDS011;2054;47.858;11.156;2023-03-01T08:32:35;27.85;;;15.10;;
4078;SDS011;2054;47.858;11.156;2023-03-01T08:35:05;33.22;;;15.63;;
4078;SDS011;2054;47.858;11.156;2023-03-01T08:37:32;32.05;;;14.88;;
4078;SDS011;2054;47.858;11.156;2023-03-01T08:40:00;34.30;;;16.25;;
4078;SDS011;2054;47.858;11.156;2023-03-01T08:42:28;30.45;;;15.65;;
4078;SDS011;2054;47.858;11.156;2023-03-01T08:44:56;30.25;;;15.45;;
4078;SDS011;2054;47.858;11.156;2023-03-01T08:47:23;31.75;;;15.80;;
4078;SDS011;2054;47.858;11.156;2023-03-01T08:49:51;31.63;;;15.90;;
4078;SDS011;2054;47.858;11.156;2023-03-01T08:52:20;29.52;;;14.45;;
4078;SDS011;2054;47.858;11.156;2023-03-01T08:54:47;31.38;;;15.23;;
4078;SDS011;2054;47.858;11.156;2023-03-01T08:57:14;31.65;;;15.07;;
4078;SDS011;2054;47.858;11.156;2023-03-01T08:59:42;31.90;;;15.20;;
4078;SDS011;2054;47.858;11.156;2023-03-01T09:02:10;31.00;;;14.57;;
4078;SDS011;2054;47.858;11.156;2023-03-01T09:04:38;29.30;;;15.25;;
4078;SDS011;2054;47.858;11.156;2023-03-01T09:07:06;34.53;;;15.90;;
4078;SDS011;2054;47.858;11.156;2023-03-01T09:09:35;27.73;;;15.30;;
4078;SDS011;2054;47.858;11.156;2023-03-01T09:12:02;32.58;;;15.57;;
4078;SDS011;2054;47.858;11.156;2023-03-01T09:14:30;27.45;;;14.52;;
4078;SDS011;2054;47.858;11.156;2023-03-01T09:16:57;25.23;;;14.82;;
4078;SDS011;2054;47.858;11.156;2023-03-01T09:19:27;29.05;;;14.73;;
4078;SDS011;2054;47.858;11.156;2023-03-01T09:21:55;29.05;;;14.75;;
4078;SDS011;2054;47.858;11.156;2023-03-01T09:24:24;28.60;;;15.00;;
4078;SDS011;2054;47.858;11.156;2023-03-01T09:26:54;30.65;;;15.98;;
4078;SDS011;2054;47.858;11.156;2023-03-01T09:29:22;29.17;;;15.80;;
4078;SDS011;2054;47.858;11.156;2023-03-01T09:31:49;27.30;;;14.55;;
4078;SDS011;2054;47.858;11.156;2023-03-01T09:34:20;34.30;;;16.25;;
4078;SDS011;2054;47.858;11.156;2023-03-01T09:36:48;33.25;;;14.77;;
4078;SDS011;2054;47.858;11.156;2023-03-01T09:39:16;28.75;;;14.48;;
4078;SDS011;2054;47.858;11.156;2023-03-01T09:41:46;34.55;;;15.68;;
4078;SDS011;2054;47.858;11.156;2023-03-01T09:44:23;30.90;;;15.25;;
4078;SDS011;2054;47.858;11.156;2023-03-01T09:46:53;32.95;;;16.02;;
4078;SDS011;2054;47.858;11.156;2023-03-01T09:49:23;27.23;;;14.35;;
4078;SDS011;2054;47.858;11.156;2023-03-01T09:51:54;29.10;;;15.00;;
4078;SDS011;2054;47.858;11.156;2023-03-01T09:54:22;26.58;;;13.88;;
4078;SDS011;2054;47.858;11.156;2023-03-01T09:56:53;24.77;;;13.73;;
4078;SDS011;2054;47.858;11.156;2023-03-01T09:59:26;27.13;;;14.23;;
4078;SDS011;2054;47.858;11.156;2023-03-01T10:01:57;26.58;;;14.35;;
4078;SDS011;2054;47.858;11.156;2023-03-01T10:04:28;27.05;;;14.68;;
4078;SDS011;2054;47.858;11.156;2023-03-01T10:06:58;26.15;;;14.27;;
4078;SDS011;2054;47.858;11.156;2023-03-01T10:09:26;27.73;;;14.13;;
4078;SDS011;2054;47.858;11.156;2023-03-01T10:11:56;25.73;;;13.60;;
4078;SDS011;2054;47.858;11.156;2023-03-01T10:14:27;29.42;;;13.07;;
4078;SDS011;2054;47.858;11.156;2023-03-01T10:16:57;25.30;;;14.27;;
4078;SDS011;2054;47.858;11.156;2023-03-01T10:19:29;24.02;;;14.02;;
4078;SDS011;2054;47.858;11.156;2023-03-01T10:21:57;24.73;;;13.23;;
4078;SDS011;2054;47.858;11.156;2023-03-01T10:24:28;25.05;;;12.68;;
4078;SDS011;2054;47.858;11.156;2023-03-01T10:27:03;21.85;;;11.00;;
4078;SDS011;2054;47.858;11.156;2023-03-01T10:29:37;26.50;;;13.27;;
4078;SDS011;2054;47.858;11.156;2023-03-01T10:32:06;25.52;;;13.82;;
4078;SDS011;2054;47.858;11.156;2023-03-01T10:34:34;26.05;;;13.88;;
4078;SDS011;2054;47.858;11.156;2023-03-01T10:37:08;24.20;;;12.23;;
4078;SDS011;2054;47.858;11.156;2023-03-01T10:39:35;23.38;;;12.27;;
4078;SDS011;2054;47.858;11.156;2023-03-01T10:42:04;28.27;;;12.43;;
4078;SDS011;2054;47.858;11.156;2023-03-01T10:44:44;24.92;;;12.95;;
4078;SDS011;2054;47.858;11.156;2023-03-01T10:47:13;22.98;;;11.43;;
4078;SDS011;2054;47.858;11.156;2023-03-01T10:49:49;23.27;;;12.10;;
4078;SDS011;2054;47.858;11.156;2023-03-01T10:52:19;23.08;;;12.40;;
4078;SDS011;2054;47.858;11.156;2023-03-01T10:54:50;25.20;;;12.90;;
4078;SDS011;2054;47.858;11.156;2023-03-01T10:57:28;24.67;;;12.50;;
4078;SDS011;2054;47.858;11.156;2023-03-01T11:00:17;23.58;;;12.65;;
4078;SDS011;2054;47.858;11.156;2023-03-01T11:02:47;27.88;;;12.25;;
4078;SDS011;2054;47.858;11.156;2023-03-01T11:05:16;27.08;;;13.05;;
4078;SDS011;2054;47.858;11.156;2023-03-01T11:07:47;24.10;;;12.23;;
4078;SDS011;2054;47.858;11.156;2023-03-01T11:10:16;28.85;;;13.85;;
4078;SDS011;2054;47.858;11.156;2023-03-01T11:12:44;23.42;;;12.73;;
4078;SDS011;2054;47.858;11.156;2023-03-01T11:15:21;24.05;;;12.82;;
4078;SDS011;2054;47.858;11.156;2023-03-01T11:17:49;23.25;;;11.93;;
4078;SDS011;2054;47.858;11.156;2023-03-01T11:20:20;25.05;;;12.45;;
4078;SDS011;2054;47.858;11.156;2023-03-01T11:22:48;23.45;;;11.85;;
4078;SDS011;2054;47.858;11.156;2023-03-01T11:25:17;22.83;;;12.32;;
4078;SDS011;2054;47.858;11.156;2023-03-01T11:27:46;22.15;;;12.20;;
4078;SDS011;2054;47.858;11.156;2023-03-01T11:30:15;26.38;;;12.27;;
4078;SDS011;2054;47.858;11.156;2023-03-01T11:32:47;23.52;;;12.35;;
4078;SDS011;2054;47.858;11.156;2023-03-01T11:35:16;26.80;;;12.60;;
4078;SDS011;2054;47.858;11.156;2023-03-01T11:37:49;22.27;;;11.68;;
4078;SDS011;2054;47.858;11.156;2023-03-01T11:40:22;28.13;;;13.63;;
4078;SDS011;2054;47.858;11.156;2023-03-01T11:42:56;24.35;;;12.38;;
4078;SDS011;2054;47.858;11.156;2023-03-01T11:45:27;26.23;;;12.93;;
4078;SDS011;2054;47.858;11.156;2023-03-01T11:48:10;24.42;;;13.10;;
4078;SDS011;2054;47.858;11.156;2023-03-01T11:50:45;25.52;;;12.98;;
4078;SDS011;2054;47.858;11.156;2023-03-01T11:56:03;24.13;;;13.07;;
4078;SDS011;2054;47.858;11.156;2023-03-01T12:06:52;25.70;;;12.65;;
4078;SDS011;2054;47.858;11.156;2023-03-01T12:09:23;24.75;;;12.55;;
4078;SDS011;2054;47.858;11.156;2023-03-01T12:12:02;24.98;;;13.13;;
4078;SDS011;2054;47.858;11.156;2023-03-01T12:14:37;21.58;;;11.57;;
4078;SDS011;2054;47.858;11.156;2023-03-01T12:22:43;29.30;;;13.60;;
4078;SDS011;2054;47.858;11.156;2023-03-01T12:25:16;24.80;;;12.50;;
4078;SDS011;2054;47.858;11.156;2023-03-01T12:30:41;22.33;;;12.00;;
4078;SDS011;2054;47.858;11.156;2023-03-01T12:33:13;22.77;;;11.65;;
4078;SDS011;2054;47.858;11.156;2023-03-01T12:38:35;26.77;;;13.77;;
4078;SDS011;2054;47.858;11.156;2023-03-01T12:41:08;24.67;;;12.57;;
4078;SDS011;2054;47.858;11.156;2023-03-01T12:43:42;27.95;;;12.80;;
4078;SDS011;2054;47.858;11.156;2023-03-01T12:46:18;25.27;;;12.60;;
4078;SDS011;2054;47.858;11.156;2023-03-01T12:48:48;26.13;;;13.25;;
4078;SDS011;2054;47.858;11.156;2023-03-01T12:51:19;27.48;;;14.00;;
4078;SDS011;2054;47.858;11.156;2023-03-01T12:53:49;25.13;;;13.15;;
4078;SDS011;2054;47.858;11.156;2023-03-01T12:56:18;23.77;;;13.07;;
4078;SDS011;2054;47.858;11.156;2023-03-01T12:58:57;25.80;;;12.27;;
4078;SDS011;2054;47.858;11.156;2023-03-01T13:01:31;26.15;;;13.75;;
4078;SDS011;2054;47.858;11.156;2023-03-01T13:04:05;28.92;;;13.20;;
4078;SDS011;2054;47.858;11.156;2023-03-01T13:06:38;27.42;;;13.43;;
4078;SDS011;2054;47.858;11.156;2023-03-01T13:09:11;29.45;;;14.80;;
4078;SDS011;2054;47.858;11.156;2023-03-01T13:11:42;28.60;;;13.13;;
4078;SDS011;2054;47.858;11.156;2023-03-01T13:17:00;28.83;;;13.45;;
4078;SDS011;2054;47.858;11.156;2023-03-01T13:19:28;28.00;;;13.77;;
4078;SDS011;2054;47.858;11.156;2023-03-01T13:21:57;29.27;;;14.38;;
4078;SDS011;2054;47.858;11.156;2023-03-01T13:24:37;28.60;;;13.43;;
4078;SDS011;2054;47.858;11.156;2023-03-01T13:27:09;30.02;;;14.18;;
4078;SDS011;2054;47.858;11.156;2023-03-01T13:29:43;27.42;;;13.98;;
4078;SDS011;2054;47.858;11.156;2023-03-01T13:32:19;26.65;;;13.70;;
4078;SDS011;2054;47.858;11.156;2023-03-01T13:34:55;29.45;;;14.05;;
4078;SDS011;2054;47.858;11.156;2023-03-01T13:37:27;29.38;;;14.50;;
4078;SDS011;2054;47.858;11.156;2023-03-01T13:39:58;30.08;;;13.68;;
4078;SDS011;2054;47.858;11.156;2023-03-01T13:45:24;28.23;;;13.77;;
4078;SDS011;2054;47.858;11.156;2023-03-01T13:47:55;28.30;;;13.80;;
4078;SDS011;2054;47.858;11.156;2023-03-01T13:50:24;28.75;;;14.27;;
4078;SDS011;2054;47.858;11.156;2023-03-01T13:52:55;26.40;;;13.85;;
4078;SDS011;2054;47.858;11.156;2023-03-01T13:55:27;31.08;;;13.80;;
4078;SDS011;2054;47.858;11.156;2023-03-01T13:57:57;29.83;;;14.10;;
4078;SDS011;2054;47.858;11.156;2023-03-01T14:00:30;24.77;;;12.98;;
4078;SDS011;2054;47.858;11.156;2023-03-01T14:03:05;27.77;;;13.73;;
4078;SDS011;2054;47.858;11.156;2023-03-01T14:05:42;31.75;;;13.80;;
4078;SDS011;2054;47.858;11.156;2023-03-01T14:08:18;30.83;;;13.80;;
4078;SDS011;2054;47.858;11.156;2023-03-01T14:10:51;30.05;;;14.45;;
4078;SDS011;2054;47.858;11.156;2023-03-01T14:13:24;27.85;;;13.73;;
4078;SDS011;2054;47.858;11.156;2023-03-01T14:15:58;30.98;;;14.48;;
4078;SDS011;2054;47.858;11.156;2023-03-01T14:18:31;28.10;;;13.98;;
4078;SDS011;2054;47.858;11.156;2023-03-01T14:20:59;31.33;;;13.80;;
4078;SDS011;2054;47.858;11.156;2023-03-01T14:23:28;26.67;;;13.75;;
4078;SDS011;2054;47.858;11.156;2023-03-01T14:25:57;30.00;;;14.55;;
4078;SDS011;2054;47.858;11.156;2023-03-01T14:28:26;28.27;;;14.23;;
4078;SDS011;2054;47.858;11.156;2023-03-01T14:30:54;26.83;;;14.25;;
4078;SDS011;2054;47.858;11.156;2023-03-01T14:33:23;25.08;;;13.23;;
4078;SDS011;2054;47.858;11.156;2023-03-01T14:35:54;25.15;;;12.70;;
4078;SDS011;2054;47.858;11.156;2023-03-01T14:38:22;26.35;;;12.90;;
4078;SDS011;2054;47.858;11.156;2023-03-01T14:40:50;26.63;;;13.45;;
4078;SDS011;2054;47.858;11.156;2023-03-01T14:43:21;25.98;;;13.50;;
4078;SDS011;2054;47.858;11.156;2023-03-01T14:45:50;26.65;;;13.25;;
4078;SDS011;2054;47.858;11.156;2023-03-01T14:48:18;24.88;;;12.82;;
4078;SDS011;2054;47.858;11.156;2023-03-01T14:50:45;28.20;;;13.40;;
4078;SDS011;2054;47.858;11.156;2023-03-01T14:53:15;25.75;;;13.10;;
4078;SDS011;2054;47.858;11.156;2023-03-01T14:55:44;26.73;;;14.32;;
4078;SDS011;2054;47.858;11.156;2023-03-01T14:58:14;26.60;;;13.25;;
4078;SDS011;2054;47.858;11.156;2023-03-01T15:00:46;24.77;;;13.15;;
4078;SDS011;2054;47.858;11.156;2023-03-01T15:03:17;27.60;;;13.05;;
4078;SDS011;2054;47.858;11.156;2023-03-01T15:05:46;26.83;;;13.48;;
4078;SDS011;2054;47.858;11.156;2023-03-01T15:08:16;25.75;;;12.90;;
4078;SDS011;2054;47.858;11.156;2023-03-01T15:10:55;26.58;;;13.38;;
4078;SDS011;2054;47.858;11.156;2023-03-01T15:13:23;25.40;;;13.35;;
4078;SDS011;2054;47.858;11.156;2023-03-01T15:15:52;32.72;;;14.20;;
4078;SDS011;2054;47.858;11.156;2023-03-01T15:18:21;25.75;;;13.68;;
4078;SDS011;2054;47.858;11.156;2023-03-01T15:20:50;28.98;;;14.43;;
4078;SDS011;2054;47.858;11.156;2023-03-01T15:23:19;32.20;;;14.68;;
4078;SDS011;2054;47.858;11.156;2023-03-01T15:25:47;30.95;;;13.82;;
4078;SDS011;2054;47.858;11.156;2023-03-01T15:28:21;26.38;;;13.77;;
4078;SDS011;2054;47.858;11.156;2023-03-01T15:31:11;26.35;;;13.70;;
4078;SDS011;2054;47.858;11.156;2023-03-01T15:33:40;26.83;;;13.82;;
4078;SDS011;2054;47.858;11.156;2023-03-01T15:36:36;29.35;;;14.55;;
4078;SDS011;2054;47.858;11.156;2023-03-01T15:39:04;32.17;;;14.55;;
4078;SDS011;2054;47.858;11.156;2023-03-01T15:41:36;32.20;;;13.10;;
4078;SDS011;2054;47.858;11.156;2023-03-01T15:44:16;28.02;;;14.18;;
4078;SDS011;2054;47.858;11.156;2023-03-01T15:46:47;32.40;;;14.98;;
4078;SDS011;2054;47.858;11.156;2023-03-01T15:49:21;33.65;;;16.10;;
4078;SDS011;2054;47.858;11.156;2023-03-01T15:51:52;33.25;;;15.10;;
4078;SDS011;2054;47.858;11.156;2023-03-01T15:54:21;31.55;;;14.60;;
4078;SDS011;2054;47.858;11.156;2023-03-01T15:56:49;27.52;;;14.18;;
4078;SDS011;2054;47.858;11.156;2023-03-01T16:02:00;33.17;;;15.48;;
4078;SDS011;2054;47.858;11.156;2023-03-01T16:04:28;30.98;;;15.15;;
4078;SDS011;2054;47.858;11.156;2023-03-01T16:06:55;28.92;;;14.60;;
4078;SDS011;2054;47.858;11.156;2023-03-01T16:09:22;30.55;;;15.30;;
4078;SDS011;2054;47.858;11.156;2023-03-01T16:11:50;32.85;;;15.88;;
4078;SDS011;2054;47.858;11.156;2023-03-01T16:14:18;29.38;;;14.13;;
4078;SDS011;2054;47.858;11.156;2023-03-01T16:16:46;31.67;;;15.20;;
4078;SDS011;2054;47.858;11.156;2023-03-01T16:19:15;31.42;;;14.07;;
4078;SDS011;2054;47.858;11.156;2023-03-01T16:21:43;30.77;;;14.43;;
4078;SDS011;2054;47.858;11.156;2023-03-01T16:24:12;32.70;;;15.23;;
4078;SDS011;2054;47.858;11.156;2023-03-01T16:26:39;35.90;;;16.35;;
4078;SDS011;2054;47.858;11.156;2023-03-01T16:29:07;33.75;;;15.07;;
4078;SDS011;2054;47.858;11.156;2023-03-01T16:31:34;33.20;;;15.52;;
4078;SDS011;2054;47.858;11.156;2023-03-01T16:34:17;33.38;;;15.65;;
4078;SDS011;2054;47.858;11.156;2023-03-01T16:36:50;35.08;;;15.35;;
4078;SDS011;2054;47.858;11.156;2023-03-01T16:39:22;34.38;;;15.55;;
4078;SDS011;2054;47.858;11.156;2023-03-01T16:42:03;32.72;;;15.50;;
4078;SDS011;2054;47.858;11.156;2023-03-01T16:44:31;30.65;;;15.73;;
4078;SDS011;2054;47.858;11.156;2023-03-01T16:47:02;37.10;;;15.63;;
4078;SDS011;2054;47.858;11.156;2023-03-01T16:49:39;27.50;;;13.60;;
4078;SDS011;2054;47.858;11.156;2023-03-01T16:52:06;31.35;;;15.57;;
4078;SDS011;2054;47.858;11.156;2023-03-01T16:54:34;32.40;;;15.50;;
4078;SDS011;2054;47.858;11.156;2023-03-01T16:57:04;40.20;;;17.17;;
4078;SDS011;2054;47.858;11.156;2023-03-01T16:59:31;37.55;;;16.70;;
4078;SDS011;2054;47.858;11.156;2023-03-01T17:01:58;33.17;;;16.42;;
4078;SDS011;2054;47.858;11.156;2023-03-01T17:04:26;31.63;;;15.85;;
4078;SDS011;2054;47.858;11.156;2023-03-01T17:06:55;33.20;;;16.50;;
4078;SDS011;2054;47.858;11.156;2023-03-01T17:09:22;37.42;;;16.33;;
4078;SDS011;2054;47.858;11.156;2023-03-01T17:11:50;36.83;;;15.70;;
4078;SDS011;2054;47.858;11.156;2023-03-01T17:14:17;37.25;;;15.52;;
4078;SDS011;2054;47.858;11.156;2023-03-01T17:16:45;32.75;;;15.70;;
4078;SDS011;2054;47.858;11.156;2023-03-01T17:19:12;35.30;;;17.15;;
4078;SDS011;2054;47.858;11.156;2023-03-01T17:21:42;39.17;;;16.95;;
4078;SDS011;2054;47.858;11.156;2023-03-01T17:24:11;34.60;;;16.08;;
4078;SDS011;2054;47.858;11.156;2023-03-01T17:26:39;36.78;;;15.35;;
4078;SDS011;2054;47.858;11.156;2023-03-01T17:29:07;35.30;;;16.15;;
4078;SDS011;2054;47.858;11.156;2023-03-01T17:31:34;35.60;;;15.25;;
4078;SDS011;2054;47.858;11.156;2023-03-01T17:34:02;34.40;;;16.05;;
4078;SDS011;2054;47.858;11.156;2023-03-01T17:36:29;33.95;;;15.23;;
4078;SDS011;2054;47.858;11.156;2023-03-01T17:38:58;33.55;;;14.77;;
4078;SDS011;2054;47.858;11.156;2023-03-01T17:41:27;32.88;;;14.13;;
4078;SDS011;2054;47.858;11.156;2023-03-01T17:43:54;29.75;;;14.50;;
4078;SDS011;2054;47.858;11.156;2023-03-01T17:46:21;34.75;;;14.88;;
4078;SDS011;2054;47.858;11.156;2023-03-01T17:48:50;38.47;;;15.98;;
4078;SDS011;2054;47.858;11.156;2023-03-01T17:51:26;35.67;;;17.10;;
4078;SDS011;2054;47.858;11.156;2023-03-01T17:53:53;38.90;;;15.93;;
4078;SDS011;2054;47.858;11.156;2023-03-01T17:56:20;35.97;;;16.48;;
4078;SDS011;2054;47.858;11.156;2023-03-01T17:58:49;37.35;;;16.02;;
4078;SDS011;2054;47.858;11.156;2023-03-01T18:01:17;36.67;;;15.77;;
4078;SDS011;2054;47.858;11.156;2023-03-01T18:03:45;32.33;;;15.50;;
4078;SDS011;2054;47.858;11.156;2023-03-01T18:06:13;33.40;;;15.63;;
4078;SDS011;2054;47.858;11.156;2023-03-01T18:08:41;30.98;;;14.88;;
4078;SDS011;2054;47.858;11.156;2023-03-01T18:11:09;38.97;;;18.33;;
4078;SDS011;2054;47.858;11.156;2023-03-01T18:13:36;36.00;;;16.45;;
4078;SDS011;2054;47.858;11.156;2023-03-01T18:16:06;36.70;;;17.50;;
4078;SDS011;2054;47.858;11.156;2023-03-01T18:18:34;36.58;;;17.50;;
4078;SDS011;2054;47.858;11.156;2023-03-01T18:21:01;36.58;;;15.52;;
4078;SDS011;2054;47.858;11.156;2023-03-01T18:23:29;36.60;;;16.45;;
4078;SDS011;2054;47.858;11.156;2023-03-01T18:25:57;31.85;;;14.40;;
4078;SDS011;2054;47.858;11.156;2023-03-01T18:28:25;31.75;;;15.00;;
4078;SDS011;2054;47.858;11.156;2023-03-01T18:30:55;31.60;;;15.07;;
4078;SDS011;2054;47.858;11.156;2023-03-01T18:33:24;35.20;;;16.58;;
4078;SDS011;2054;47.858;11.156;2023-03-01T18:35:51;31.55;;;15.57;;
4078;SDS011;2054;47.858;11.156;2023-03-01T18:38:19;36.72;;;15.95;;
4078;SDS011;2054;47.858;11.156;2023-03-01T18:40:46;35.65;;;15.23;;
4078;SDS011;2054;47.858;11.156;2023-03-01T18:43:14;33.95;;;15.85;;
4078;SDS011;2054;47.858;11.156;2023-03-01T18:45:41;33.72;;;15.43;;
4078;SDS011;2054;47.858;11.156;2023-03-01T18:48:09;31.98;;;15.73;;
4078;SDS011;2054;47.858;11.156;2023-03-01T18:50:40;33.13;;;15.57;;
4078;SDS011;2054;47.858;11.156;2023-03-01T18:53:07;38.08;;;18.60;;
4078;SDS011;2054;47.858;11.156;2023-03-01T18:55:34;39.85;;;18.48;;
4078;SDS011;2054;47.858;11.156;2023-03-01T18:58:02;47.92;;;18.63;;
4078;SDS011;2054;47.858;11.156;2023-03-01T19:00:29;44.92;;;19.00;;
4078;SDS011;2054;47.858;11.156;2023-03-01T19:02:58;40.00;;;20.48;;